createdAt,value
2018-01-25T00:01:01.030Z,10.10
2018-01-25T00:03:27.245Z,9.90
2018-01-25T00:05:54.210Z,9.90
2018-01-25T00:08:20.477Z,9.80
2018-01-25T00:10:48.322Z,9.80
2018-01-25T00:13:18.685Z,9.80
2018-01-25T00:15:45.009Z,9.90
2018-01-25T00:18:11.166Z,9.90
2018-01-25T00:20:38.337Z,9.80
2018-01-25T00:23:04.527Z,9.80
2018-01-25T00:25:31.304Z,9.90
2018-01-25T00:27:58.091Z,9.80
2018-01-25T00:30:24.277Z,9.80
2018-01-25T00:32:51.060Z,9.80
2018-01-25T00:35:17.241Z,9.80
2018-01-25T00:37:43.432Z,9.70
2018-01-25T00:40:10.384Z,9.70
2018-01-25T00:42:37.741Z,9.70
2018-01-25T00:45:04.012Z,9.60
2018-01-25T00:47:30.691Z,9.70
2018-01-25T00:49:56.885Z,9.60
2018-01-25T00:52:23.097Z,9.60
2018-01-25T00:54:49.258Z,9.60
2018-01-25T00:57:17.286Z,9.50
2018-01-25T00:59:43.486Z,9.50
2018-01-25T01:02:09.717Z,9.50
2018-01-25T01:04:36.313Z,9.50
2018-01-25T01:07:02.476Z,9.50
2018-01-25T01:09:30.059Z,9.50
2018-01-25T01:12:01.901Z,9.60
2018-01-25T01:14:29.130Z,9.60
2018-01-25T01:16:56.074Z,9.60
2018-01-25T01:19:23.044Z,9.60
2018-01-25T01:21:49.232Z,9.60
2018-01-25T01:24:15.467Z,9.60
2018-01-25T01:26:43.453Z,9.60
2018-01-25T01:29:12.274Z,9.60
2018-01-25T01:31:38.755Z,9.60
2018-01-25T01:34:04.918Z,9.60
2018-01-25T01:36:32.466Z,9.60
2018-01-25T01:38:59.384Z,9.60
2018-01-25T01:41:25.552Z,9.60
2018-01-25T01:43:51.787Z,9.60
2018-01-25T01:46:18.079Z,9.50
2018-01-25T01:48:45.029Z,9.60
2018-01-25T01:51:12.830Z,9.70
2018-01-25T01:53:40.010Z,9.70
2018-01-25T01:56:06.210Z,9.70
2018-01-25T01:58:32.375Z,9.70
2018-01-25T02:00:58.877Z,9.70
2018-01-25T02:03:27.183Z,9.70
2018-01-25T02:05:53.417Z,9.70
2018-01-25T02:08:19.578Z,9.70
2018-01-25T02:10:48.507Z,9.70
2018-01-25T02:13:15.474Z,9.70
2018-01-25T02:15:42.537Z,9.70
2018-01-25T02:18:08.721Z,9.70
2018-01-25T02:20:36.129Z,9.70
2018-01-25T02:23:04.705Z,9.80
2018-01-25T02:25:31.935Z,9.70
2018-01-25T02:27:58.519Z,9.70
2018-01-25T02:30:27.775Z,9.70
2018-01-25T02:32:55.057Z,9.70
2018-01-25T02:35:21.250Z,9.70
2018-01-25T02:37:48.595Z,9.80
2018-01-25T02:40:14.800Z,9.80
2018-01-25T02:42:42.024Z,9.80
2018-01-25T02:45:08.213Z,9.70
2018-01-25T02:47:35.562Z,9.80
2018-01-25T02:50:01.744Z,9.80
2018-01-25T02:52:27.918Z,9.80
2018-01-25T02:54:54.121Z,9.80
2018-01-25T02:57:20.687Z,9.70
2018-01-25T02:59:46.901Z,9.70
2018-01-25T03:02:13.112Z,9.70
2018-01-25T03:04:40.698Z,9.70
2018-01-25T03:07:06.932Z,9.70
2018-01-25T03:22:33.155Z,9.70
2018-01-25T03:24:59.309Z,9.70
2018-01-25T03:27:25.522Z,9.70
2018-01-25T03:29:51.689Z,9.70
2018-01-25T03:32:18.590Z,9.80
2018-01-25T03:34:44.768Z,9.80
2018-01-25T03:37:12.198Z,9.80
2018-01-25T03:39:39.235Z,9.80
2018-01-25T03:42:05.379Z,9.80
2018-01-25T03:44:32.849Z,9.70
2018-01-25T03:46:59.830Z,9.80
2018-01-25T03:49:26.961Z,9.80
2018-01-25T03:51:53.990Z,9.80
2018-01-25T03:54:21.162Z,9.80
2018-01-25T04:06:39.105Z,9.80
2018-01-25T04:22:10.366Z,9.70
2018-01-25T04:24:36.546Z,9.80
2018-01-25T04:27:02.762Z,9.80
2018-01-25T04:29:30.614Z,9.70
2018-01-25T04:45:01.885Z,9.80
2018-01-25T04:47:29.370Z,9.70
2018-01-25T04:49:55.577Z,9.70
2018-01-25T04:52:22.246Z,10.00
2018-01-25T04:54:49.391Z,9.70
2018-01-25T04:57:15.714Z,9.70
2018-01-25T04:59:41.878Z,9.70
2018-01-25T05:02:08.728Z,9.70
2018-01-25T05:04:35.884Z,9.70
2018-01-25T05:07:02.826Z,9.70
2018-01-25T05:09:29.816Z,9.70
2018-01-25T05:11:55.985Z,9.80
2018-01-25T05:14:22.171Z,9.70
2018-01-25T05:16:54.577Z,9.80
2018-01-25T05:19:23.562Z,9.80
2018-01-25T05:21:50.509Z,9.80
2018-01-25T05:24:16.794Z,9.80
2018-01-25T05:26:44.549Z,9.80
2018-01-25T05:29:13.142Z,9.90
2018-01-25T05:31:39.758Z,9.90
2018-01-25T05:34:06.268Z,9.90
2018-01-25T05:36:32.488Z,9.90
2018-01-25T05:38:58.699Z,10.00
2018-01-25T05:41:24.908Z,10.00
2018-01-25T05:43:51.281Z,10.00
2018-01-25T05:46:17.503Z,10.00
2018-01-25T05:48:43.801Z,10.00
2018-01-25T05:51:10.180Z,10.10
2018-01-25T05:53:37.324Z,10.10
2018-01-25T05:56:04.202Z,10.10
2018-01-25T05:58:30.794Z,10.20
2018-01-25T06:00:57.874Z,10.20
2018-01-25T06:03:24.668Z,10.10
2018-01-25T06:05:51.887Z,10.20
2018-01-25T06:08:18.107Z,10.20
2018-01-25T06:10:44.281Z,10.30
2018-01-25T06:13:10.555Z,10.30
2018-01-25T06:15:36.816Z,10.30
2018-01-25T06:27:50.897Z,10.30
2018-01-25T06:30:17.171Z,10.30
2018-01-25T06:32:44.207Z,10.30
2018-01-25T06:35:11.444Z,10.30
2018-01-25T06:37:37.843Z,10.30
2018-01-25T06:40:05.380Z,10.30
2018-01-25T06:42:31.589Z,10.40
2018-01-25T06:44:57.757Z,10.40
2018-01-25T06:47:23.950Z,10.50
2018-01-25T06:49:50.176Z,10.70
2018-01-25T06:52:16.341Z,10.70
2018-01-25T06:54:42.642Z,10.80
2018-01-25T06:57:08.905Z,10.70
2018-01-25T06:59:50.257Z,10.70
2018-01-25T07:02:17.442Z,10.60
2018-01-25T07:04:43.655Z,10.60
2018-01-25T07:07:10.821Z,10.50
2018-01-25T07:09:38.943Z,10.50
2018-01-25T07:12:07.392Z,10.50
2018-01-25T07:14:33.667Z,10.50
2018-01-25T07:17:00.608Z,10.50
2018-01-25T07:19:26.791Z,10.50
2018-01-25T07:21:53.243Z,10.50
2018-01-25T07:24:20.786Z,10.50
2018-01-25T07:26:47.544Z,10.50
2018-01-25T07:29:15.210Z,10.50
2018-01-25T07:31:42.356Z,10.50
2018-01-25T07:34:11.260Z,10.50
2018-01-25T07:36:39.463Z,10.50
2018-01-25T07:39:05.652Z,10.40
2018-01-25T07:41:34.098Z,10.50
2018-01-25T07:44:00.657Z,10.40
2018-01-25T07:46:27.653Z,10.40
2018-01-25T07:48:53.990Z,10.50
2018-01-25T07:51:21.324Z,10.50
2018-01-25T07:53:48.248Z,10.50
2018-01-25T07:56:14.484Z,10.50
2018-01-25T07:58:41.411Z,10.50
2018-01-25T08:01:08.738Z,10.50
2018-01-25T08:03:35.649Z,10.50
2018-01-25T08:06:02.878Z,10.50
2018-01-25T08:08:29.154Z,10.50
2018-01-25T08:10:56.099Z,10.50
2018-01-25T08:13:31.380Z,10.50
2018-01-25T08:16:03.714Z,10.40
2018-01-25T08:18:29.956Z,10.50
2018-01-25T08:20:56.158Z,10.40
2018-01-25T08:23:22.348Z,10.40
2018-01-25T08:25:50.210Z,10.50
2018-01-25T08:28:17.920Z,10.50
2018-01-25T08:30:44.108Z,10.40
2018-01-25T08:33:11.240Z,10.40
2018-01-25T08:35:38.049Z,10.40
2018-01-25T08:38:04.216Z,10.50
2018-01-25T08:40:30.674Z,10.60
2018-01-25T08:42:57.909Z,10.40
2018-01-25T08:45:26.729Z,10.40
2018-01-25T08:47:52.963Z,10.30
2018-01-25T08:50:19.176Z,10.30
2018-01-25T08:52:46.990Z,10.30
2018-01-25T08:55:13.481Z,10.30
2018-01-25T08:57:40.641Z,10.20
2018-01-25T09:00:07.821Z,10.20
2018-01-25T09:12:26.538Z,10.10
2018-01-25T09:14:55.119Z,10.10
2018-01-25T09:17:21.342Z,10.10
2018-01-25T09:19:48.068Z,10.10
2018-01-25T09:22:15.002Z,10.10
2018-01-25T09:24:42.923Z,10.10
2018-01-25T09:36:55.129Z,9.90
2018-01-25T09:39:21.936Z,10.00
2018-01-25T09:41:49.050Z,10.00
2018-01-25T09:44:16.076Z,10.00
2018-01-25T09:46:42.297Z,9.90
2018-01-25T09:49:09.287Z,10.00
2018-01-25T10:01:20.505Z,10.10
2018-01-25T10:03:47.459Z,10.30
2018-01-25T10:06:15.121Z,10.30
2018-01-25T10:08:42.085Z,10.30
2018-01-25T10:11:08.369Z,10.30
2018-01-25T10:13:34.644Z,10.30
2018-01-25T10:16:02.775Z,10.30
2018-01-25T10:18:29.614Z,10.30
2018-01-25T10:20:56.692Z,10.30
2018-01-25T10:23:23.636Z,10.30
2018-01-25T10:25:51.529Z,10.40
2018-01-25T10:28:17.754Z,10.30
2018-01-25T10:30:45.743Z,10.40
2018-01-25T10:33:12.841Z,10.30
2018-01-25T10:35:39.060Z,10.60
2018-01-25T10:38:05.261Z,10.40
2018-01-25T10:40:32.241Z,10.40
2018-01-25T10:43:01.343Z,10.30
2018-01-25T10:45:28.314Z,10.20
2018-01-25T10:47:56.140Z,10.20
2018-01-25T10:50:23.334Z,10.10
2018-01-25T10:52:52.067Z,10.30
2018-01-25T10:55:18.603Z,10.20
2018-01-25T10:57:45.527Z,10.20
2018-01-25T11:00:12.636Z,10.10
2018-01-25T11:02:40.335Z,10.20
2018-01-25T11:05:07.008Z,10.10
2018-01-25T11:07:35.913Z,10.10
2018-01-25T11:10:02.209Z,10.20
2018-01-25T11:12:28.438Z,10.20
2018-01-25T11:14:55.450Z,10.20
2018-01-25T11:17:23.658Z,10.30
2018-01-25T11:19:52.009Z,10.50
2018-01-25T11:22:19.254Z,10.60
2018-01-25T11:24:46.274Z,10.70
2018-01-25T11:27:13.360Z,10.70
2018-01-25T11:29:39.573Z,10.70
2018-01-25T11:32:10.053Z,10.70
2018-01-25T11:34:36.923Z,10.60
2018-01-25T11:37:04.177Z,10.70
2018-01-25T11:39:32.315Z,10.60
2018-01-25T11:41:58.561Z,10.60
2018-01-25T11:44:25.647Z,10.60
2018-01-25T11:46:52.584Z,10.50
2018-01-25T11:49:18.747Z,10.70
2018-01-25T11:51:44.996Z,10.50
2018-01-25T11:54:12.062Z,10.50
2018-01-25T11:56:38.218Z,10.50
2018-01-25T11:59:05.821Z,10.50
2018-01-25T12:11:17.954Z,10.60
2018-01-25T12:13:44.876Z,10.60
2018-01-25T12:16:11.520Z,10.60
2018-01-25T12:18:37.718Z,10.60
2018-01-25T12:21:03.946Z,10.60
2018-01-25T12:23:31.289Z,10.50
2018-01-25T12:25:57.441Z,10.50
2018-01-25T12:28:24.141Z,10.50
2018-01-25T12:30:51.294Z,10.60
2018-01-25T12:33:17.494Z,10.60
2018-01-25T12:35:43.669Z,10.70
2018-01-25T12:38:10.696Z,10.80
2018-01-25T12:40:37.396Z,10.90
2018-01-25T12:43:03.978Z,10.90
2018-01-25T12:45:32.247Z,10.70
2018-01-25T12:47:58.398Z,10.70
2018-01-25T12:50:25.342Z,10.80
2018-01-25T12:52:53.246Z,10.70
2018-01-25T12:55:21.225Z,10.80
2018-01-25T12:57:47.398Z,10.70
2018-01-25T13:00:13.680Z,10.70
2018-01-25T13:02:40.263Z,10.60
2018-01-25T13:05:09.562Z,10.60
2018-01-25T13:07:36.664Z,10.70
2018-01-25T13:10:03.119Z,10.70
2018-01-25T13:12:32.549Z,10.90
2018-01-25T13:14:59.344Z,10.80
2018-01-25T13:17:25.564Z,11.00
2018-01-25T13:19:54.545Z,11.10
2018-01-25T13:22:20.720Z,11.10
2018-01-25T13:24:47.639Z,11.20
2018-01-25T13:27:13.793Z,11.10
2018-01-25T13:29:40.697Z,11.20
2018-01-25T13:32:06.959Z,11.10
2018-01-25T13:34:33.816Z,11.00
2018-01-25T13:37:01.686Z,10.90
2018-01-25T13:39:27.870Z,10.90
2018-01-25T13:41:55.493Z,10.90
2018-01-25T13:44:21.656Z,10.80
2018-01-25T13:46:47.916Z,10.50
2018-01-25T13:49:15.918Z,10.50
2018-01-25T13:51:42.101Z,10.50
2018-01-25T13:54:10.185Z,10.40
2018-01-25T13:56:36.748Z,10.40
2018-01-25T13:59:03.874Z,10.50
2018-01-25T14:01:31.430Z,10.70
2018-01-25T14:03:57.713Z,10.60
2018-01-25T14:16:14.749Z,10.70
2018-01-25T14:18:42.208Z,10.70
2018-01-25T14:21:08.452Z,10.70
2018-01-25T14:23:34.729Z,10.70
2018-01-25T14:26:00.931Z,10.70
2018-01-25T14:28:28.133Z,10.60
2018-01-25T14:40:44.432Z,10.60
2018-01-25T14:43:15.426Z,10.40
2018-01-25T14:45:41.722Z,10.30
2018-01-25T14:48:07.913Z,10.30
2018-01-25T14:50:36.546Z,10.30
2018-01-25T14:53:02.763Z,10.30
2018-01-25T14:55:28.934Z,10.20
2018-01-25T14:57:55.185Z,10.20
2018-01-25T15:00:22.539Z,10.10
2018-01-25T15:02:49.777Z,10.10
2018-01-25T15:05:18.075Z,10.10
2018-01-25T15:07:45.643Z,10.00
2018-01-25T15:10:13.566Z,10.00
2018-01-25T15:12:39.733Z,10.00
2018-01-25T15:15:06.633Z,10.00
2018-01-25T15:17:33.520Z,10.00
2018-01-25T15:20:00.466Z,10.10
2018-01-25T15:22:27.534Z,10.00
2018-01-25T15:25:00.810Z,10.00
2018-01-25T15:27:32.814Z,10.00
2018-01-25T15:29:59.040Z,10.00
2018-01-25T15:32:25.230Z,10.00
2018-01-25T15:34:52.160Z,10.10
2018-01-25T15:37:18.709Z,10.10
2018-01-25T15:39:45.662Z,10.10
2018-01-25T15:42:12.688Z,10.10
2018-01-25T15:47:37.959Z,10.10
2018-01-25T15:50:04.218Z,10.10
2018-01-25T15:52:31.409Z,10.00
2018-01-25T15:54:57.605Z,10.00
2018-01-25T15:57:23.826Z,10.00
2018-01-25T15:59:50.952Z,10.00
2018-01-25T16:02:17.545Z,10.00
2018-01-25T16:04:43.776Z,10.00
2018-01-25T16:07:10.532Z,10.10
2018-01-25T16:09:37.448Z,10.10
2018-01-25T16:12:04.555Z,10.00
2018-01-25T16:14:30.759Z,10.10
2018-01-25T16:16:57.629Z,10.10
2018-01-25T16:19:23.874Z,10.10
2018-01-25T16:21:51.445Z,10.10
2018-01-25T16:24:20.163Z,10.00
2018-01-25T16:26:46.429Z,10.00
2018-01-25T16:29:13.015Z,10.00
2018-01-25T16:31:39.263Z,10.00
2018-01-25T16:34:06.547Z,10.10
2018-01-25T16:36:33.773Z,10.10
2018-01-25T16:39:00.050Z,10.10
2018-01-25T16:41:27.270Z,10.00
2018-01-25T16:43:54.477Z,10.00
2018-01-25T16:46:21.543Z,10.00
2018-01-25T16:58:32.940Z,10.00
2018-01-25T17:00:59.259Z,10.00
2018-01-25T17:03:26.917Z,9.90
2018-01-25T17:05:53.269Z,9.90
2018-01-25T17:08:21.753Z,9.90
2018-01-25T17:10:48.867Z,9.90
2018-01-25T17:13:17.019Z,10.00
2018-01-25T17:15:43.248Z,9.90
2018-01-25T17:18:11.749Z,9.90
2018-01-25T17:20:37.969Z,9.90
2018-01-25T17:23:04.145Z,9.90
2018-01-25T17:25:30.411Z,9.90
2018-01-25T17:28:00.483Z,9.80
2018-01-25T17:30:26.663Z,9.80
2018-01-25T17:32:54.651Z,9.80
2018-01-25T17:35:20.833Z,9.80
2018-01-25T17:37:47.314Z,9.80
2018-01-25T17:40:15.020Z,9.70
2018-01-25T17:42:42.160Z,9.80
2018-01-25T17:45:08.967Z,9.80
2018-01-25T17:47:35.138Z,9.70
2018-01-25T17:50:02.386Z,9.70
2018-01-25T17:52:28.630Z,9.80
2018-01-25T17:54:55.149Z,9.80
2018-01-25T17:57:21.871Z,9.70
2018-01-25T17:59:51.172Z,9.80
2018-01-25T18:02:17.503Z,9.80
2018-01-25T18:04:44.448Z,9.70
2018-01-25T18:07:12.983Z,9.80
2018-01-25T18:09:40.139Z,9.70
2018-01-25T18:12:06.399Z,9.80
2018-01-25T18:14:33.747Z,9.70
2018-01-25T18:26:46.290Z,9.80
2018-01-25T18:29:13.435Z,9.80
2018-01-25T18:31:40.021Z,9.80
2018-01-25T18:34:07.105Z,9.80
2018-01-25T18:36:34.555Z,9.80
2018-01-25T18:39:00.757Z,9.80
2018-01-25T18:41:27.460Z,9.80
2018-01-25T18:43:53.678Z,9.80
2018-01-25T18:46:20.149Z,9.80
2018-01-25T18:58:33.182Z,10.00
2018-01-25T19:01:00.751Z,9.90
2018-01-25T19:03:30.412Z,10.00
2018-01-25T19:05:57.058Z,9.90
2018-01-25T19:08:23.501Z,9.80
2018-01-25T19:10:51.426Z,9.80
2018-01-25T19:13:20.129Z,9.90
2018-01-25T19:15:47.513Z,9.90
2018-01-25T19:18:16.121Z,9.90
2018-01-25T19:20:42.325Z,9.90
2018-01-25T19:23:11.865Z,9.90
2018-01-25T19:25:38.491Z,9.90
2018-01-25T19:28:05.629Z,9.90
2018-01-25T19:30:32.723Z,9.90
2018-01-25T19:32:59.359Z,9.90
2018-01-25T19:35:26.566Z,9.90
2018-01-25T19:37:55.204Z,9.90
2018-01-25T19:40:23.200Z,9.90
2018-01-25T19:42:49.528Z,9.90
2018-01-25T19:45:16.216Z,10.10
2018-01-25T19:57:27.599Z,10.10
2018-01-25T19:59:56.140Z,10.00
2018-01-25T20:02:25.019Z,10.00
2018-01-25T20:04:54.037Z,10.00
2018-01-25T20:07:21.071Z,9.90
2018-01-25T20:09:48.169Z,9.90
2018-01-25T20:12:14.378Z,9.80
2018-01-25T20:14:41.502Z,9.80
2018-01-25T20:17:07.831Z,9.80
2018-01-25T20:19:34.763Z,9.70
2018-01-25T20:22:03.261Z,9.70
2018-01-25T20:24:31.199Z,9.70
2018-01-25T20:26:57.444Z,9.60
2018-01-25T20:29:24.778Z,9.60
2018-01-25T20:31:51.267Z,9.60
2018-01-25T20:34:18.000Z,9.50
2018-01-25T20:36:44.857Z,9.60
2018-01-25T20:39:11.069Z,9.60
2018-01-25T20:41:37.868Z,9.60
2018-01-25T20:44:04.770Z,9.40
2018-01-25T20:46:30.994Z,9.40
2018-01-25T20:48:57.194Z,9.40
2018-01-25T20:51:24.586Z,9.40
2018-01-25T20:53:50.882Z,9.50
2018-01-25T20:56:20.113Z,9.40
2018-01-25T20:58:46.335Z,9.40
2018-01-25T21:01:12.557Z,9.40
2018-01-25T21:03:39.200Z,9.30
2018-01-25T21:06:07.183Z,9.30
2018-01-25T21:08:34.130Z,9.30
2018-01-25T21:24:01.449Z,9.30
2018-01-25T21:26:29.036Z,9.40
2018-01-25T21:28:56.132Z,9.30
2018-01-25T21:31:22.394Z,9.30
2018-01-25T21:33:48.657Z,9.30
2018-01-25T21:36:15.191Z,9.30
2018-01-25T21:38:44.328Z,9.30
2018-01-25T21:41:10.665Z,9.40
2018-01-25T21:43:38.540Z,9.40
2018-01-25T21:46:05.486Z,9.40
2018-01-25T21:48:33.084Z,9.40
2018-01-25T21:50:59.285Z,9.40
2018-01-25T21:53:27.221Z,9.30
2018-01-25T21:55:54.592Z,9.30
2018-01-25T21:58:22.290Z,9.20
2018-01-25T22:00:48.469Z,9.20
2018-01-25T22:03:14.651Z,9.20
2018-01-25T22:05:42.266Z,9.10
2018-01-25T22:08:09.083Z,9.20
2018-01-25T22:10:36.217Z,9.10
2018-01-25T22:13:05.730Z,9.10
2018-01-25T22:15:32.903Z,9.20
2018-01-25T22:17:59.110Z,9.20
2018-01-25T22:20:28.838Z,9.20
2018-01-25T22:22:57.180Z,9.20
2018-01-25T22:25:23.356Z,9.20
2018-01-25T22:27:49.666Z,9.30
2018-01-25T22:30:15.841Z,9.20
2018-01-25T22:32:43.814Z,9.20
2018-01-25T22:35:11.947Z,9.20
2018-01-25T22:37:40.160Z,9.20
2018-01-25T22:40:08.037Z,9.10
2018-01-25T22:42:37.705Z,9.10
2018-01-25T22:45:07.108Z,9.10
2018-01-25T23:00:41.748Z,9.30
2018-01-25T23:03:08.826Z,9.20
2018-01-25T23:05:35.914Z,9.20
2018-01-25T23:08:02.110Z,9.20
2018-01-25T23:10:29.596Z,9.20
2018-01-25T23:12:56.423Z,9.10
2018-01-25T23:15:22.640Z,9.00
2018-01-25T23:17:48.879Z,9.00
2018-01-25T23:20:15.322Z,8.90
2018-01-25T23:22:41.524Z,9.00
2018-01-25T23:25:07.804Z,9.00
2018-01-25T23:27:34.930Z,9.00
2018-01-25T23:30:01.404Z,9.00
2018-01-25T23:32:27.826Z,8.90
2018-01-25T23:34:53.972Z,8.90
2018-01-25T23:37:20.128Z,8.90
2018-01-25T23:39:46.259Z,8.90
2018-01-25T23:42:12.479Z,9.00
2018-01-25T23:44:38.660Z,9.00
2018-01-25T23:47:04.907Z,9.00
2018-01-25T23:49:31.860Z,8.90
2018-01-25T23:51:58.808Z,9.00
2018-01-25T23:54:27.714Z,9.00
2018-01-25T23:56:55.318Z,9.00
2018-01-25T23:59:22.148Z,9.00
